Time;durP1;ratioP1;P1;durP2;ratioP2;P2;SDS_P1;SDS_P2;PMS_P1;PMS_P2;Temp;Humidity;BMP_temperature;BMP_pressure;BME280_temperature;BME280_humidity;BME280_pressure;Samples;Min_cycle;Max_cycle;Signal;HPM_P1;HPM_P2
2023/11/15 00:01:34;;;;;;;1.65;0.50;;;;;;;10.23;100.00;98232.66;5062519;28;20048;-78
2023/11/15 00:04:00;;;;;;;5.55;0.55;;;;;;;10.22;100.00;98259.94;5062559;28;20349;-77
2023/11/15 00:06:25;;;;;;;3.22;0.32;;;;;;;10.19;100.00;98247.66;5062503;28;20072;-77
2023/11/15 00:08:52;;;;;;;3.03;0.65;;;;;;;10.21;100.00;98266.38;5062569;28;20040;-78
2023/11/15 00:11:18;;;;;;;4.60;0.65;;;;;;;10.19;100.00;98304.44;5062487;28;20013;-78
2023/11/15 00:13:50;;;;;;;3.72;0.45;;;;;;;10.13;100.00;98297.16;5063647;28;20059;-77
2023/11/15 00:16:18;;;;;;;3.45;0.70;;;;;;;9.94;100.00;98307.00;5064840;28;20025;-77
2023/11/15 00:18:44;;;;;;;5.07;0.50;;;;;;;9.87;100.00;98322.38;5083349;28;20318;-77
2023/11/15 00:21:09;;;;;;;1.02;0.30;;;;;;;9.77;100.00;98322.84;5066896;28;20024;-78
2023/11/15 00:23:35;;;;;;;4.68;0.50;;;;;;;9.71;100.00;98318.25;5068126;28;20085;-79
2023/11/15 00:26:00;;;;;;;3.63;0.43;;;;;;;9.65;100.00;98348.81;5066408;28;20048;-79
2023/11/15 00:28:26;;;;;;;4.45;0.73;;;;;;;9.59;100.00;98350.47;5078714;28;20032;-78
2023/11/15 00:30:52;;;;;;;2.58;0.43;;;;;;;9.57;100.00;98357.94;5078035;28;20017;-78
2023/11/15 00:33:17;;;;;;;4.40;0.55;;;;;;;9.52;100.00;98359.63;5076046;28;20028;-77
2023/11/15 00:35:43;;;;;;;6.20;0.40;;;;;;;9.54;100.00;98360.25;5077701;28;20085;-78
2023/11/15 00:38:11;;;;;;;5.07;1.17;;;;;;;9.57;100.00;98365.22;5076515;28;20051;-78
2023/11/15 00:40:37;;;;;;;6.88;0.82;;;;;;;9.66;100.00;98361.25;5076334;28;20028;-78
2023/11/15 00:43:03;;;;;;;3.20;0.40;;;;;;;9.76;100.00;98388.69;5076801;28;20028;-78
2023/11/15 00:45:29;;;;;;;3.22;0.55;;;;;;;9.76;100.00;98380.59;5059865;28;20045;-78
2023/11/15 00:47:54;;;;;;;1.15;0.30;;;;;;;9.82;100.00;98389.72;5075699;28;20036;-78
2023/11/15 00:50:20;;;;;;;1.27;0.30;;;;;;;9.71;100.00;98374.16;5062779;28;20028;-78
2023/11/15 00:52:45;;;;;;;4.88;0.30;;;;;;;9.62;100.00;98365.44;5070481;22;20039;-77
2023/11/15 00:55:12;;;;;;;10.85;1.10;;;;;;;9.56;100.00;98387.84;5055582;28;20261;-77
2023/11/15 00:57:38;;;;;;;5.25;0.63;;;;;;;9.39;100.00;98369.38;5040929;28;20017;-77
2023/11/15 01:00:13;;;;;;;3.72;0.50;;;;;;;9.33;100.00;98369.38;5033745;28;20092;-77
2023/11/15 01:02:46;;;;;;;3.60;0.60;;;;;;;9.43;100.00;98405.72;5051037;28;20068;-77
2023/11/15 01:05:11;;;;;;;1.80;0.30;;;;;;;9.26;100.00;98384.72;5033035;28;20017;-77
2023/11/15 01:07:36;;;;;;;6.07;0.85;;;;;;;9.30;100.00;98402.16;5032549;28;20032;-78
2023/11/15 01:10:05;;;;;;;1.17;0.40;;;;;;;9.36;100.00;98396.78;5033142;28;20076;-78
2023/11/15 01:12:30;;;;;;;1.27;0.40;;;;;;;9.23;100.00;98377.03;5050378;28;20021;-78
2023/11/15 01:14:55;;;;;;;2.53;0.40;;;;;;;9.37;100.00;98403.00;5051314;28;20337;-78
2023/11/15 01:17:21;;;;;;;2.83;0.47;;;;;;;9.27;100.00;98410.66;5050487;28;20381;-77
2023/11/15 01:19:46;;;;;;;4.03;0.43;;;;;;;9.22;100.00;98397.78;5040164;28;20025;-77
2023/11/15 01:22:11;;;;;;;2.47;0.57;;;;;;;9.44;100.00;98420.88;5024726;28;20025;-77
2023/11/15 01:24:39;;;;;;;2.30;0.47;;;;;;;9.47;100.00;98411.53;5032544;28;20021;-77
2023/11/15 01:27:06;;;;;;;1.98;0.32;;;;;;;9.46;100.00;98417.13;5044329;28;20055;-77
2023/11/15 01:29:31;;;;;;;2.60;0.40;;;;;;;9.36;100.00;98388.69;5041601;28;20105;-78
2023/11/15 01:31:56;;;;;;;1.20;0.70;;;;;;;9.48;100.00;98399.69;5049263;28;20025;-77
2023/11/15 01:34:22;;;;;;;5.65;0.70;;;;;;;9.61;100.00;98409.66;5031825;28;20028;-78
2023/11/15 01:36:48;;;;;;;2.40;0.35;;;;;;;9.71;100.00;98420.91;5031387;28;20094;-78
2023/11/15 01:39:16;;;;;;;4.03;0.63;;;;;;;9.81;100.00;98432.13;5048668;28;20018;-77
2023/11/15 01:41:51;;;;;;;3.03;0.30;;;;;;;9.77;100.00;98436.31;5030976;28;20083;-78
2023/11/15 01:44:18;;;;;;;4.47;0.60;;;;;;;9.87;100.00;98428.59;5031214;28;20059;-77
2023/11/15 01:46:47;;;;;;;3.15;0.50;;;;;;;9.85;100.00;98417.19;5049067;28;20025;-77
2023/11/15 01:49:14;;;;;;;2.75;0.85;;;;;;;9.74;100.00;98404.28;5045842;28;20029;-77
2023/11/15 01:51:39;;;;;;;6.90;0.50;;;;;;;9.85;100.00;98403.66;5030210;28;20021;-77
2023/11/15 01:54:06;;;;;;;3.20;1.17;;;;;;;10.05;100.00;98424.44;5040039;28;20025;-77
2023/11/15 01:56:31;;;;;;;2.03;0.40;;;;;;;10.05;100.00;98430.66;5046776;28;20022;-78
2023/11/15 01:58:58;;;;;;;4.00;0.52;;;;;;;10.16;100.00;98433.78;5029394;28;20100;-77
2023/11/15 02:01:24;;;;;;;3.25;0.73;;;;;;;10.05;100.00;98410.91;5028489;28;20032;-77
2023/11/15 02:03:50;;;;;;;4.97;0.20;;;;;;;10.18;100.00;98447.91;5028388;28;20032;-77
2023/11/15 02:06:16;;;;;;;5.00;0.75;;;;;;;10.07;100.00;98443.97;5028629;28;20027;-78
2023/11/15 02:08:42;;;;;;;2.90;0.63;;;;;;;10.07;100.00;98446.69;5034751;28;21825;-78
2023/11/15 02:11:08;;;;;;;2.53;0.55;;;;;;;10.10;100.00;98444.38;5027485;28;20049;-78
2023/11/15 02:13:33;;;;;;;2.10;0.47;;;;;;;10.18;100.00;98472.25;5046135;28;20029;-77
2023/11/15 02:15:58;;;;;;;3.08;0.68;;;;;;;10.04;100.00;98457.91;5045805;28;20021;-78
2023/11/15 02:18:25;;;;;;;3.80;0.38;;;;;;;10.14;100.00;98471.84;5042016;28;20041;-77
2023/11/15 02:20:51;;;;;;;2.58;0.40;;;;;;;10.14;100.00;98482.66;5027738;28;20246;-78
2023/11/15 02:23:22;;;;;;;4.45;0.57;;;;;;;10.12;100.00;98500.13;5044670;28;20108;-79
2023/11/15 02:25:50;;;;;;;1.92;0.68;;;;;;;10.12;100.00;98503.66;5027464;28;20022;-78
2023/11/15 02:28:16;;;;;;;2.93;0.60;;;;;;;9.89;100.00;98466.22;5027441;28;20105;-77
2023/11/15 02:30:41;;;;;;;2.78;0.50;;;;;;;9.95;100.00;98511.31;5045089;28;20238;-78
2023/11/15 02:33:07;;;;;;;3.15;0.77;;;;;;;9.92;100.00;98516.31;5027021;28;20230;-78
2023/11/15 02:35:32;;;;;;;2.08;0.50;;;;;;;9.90;100.00;98524.63;5045234;28;20033;-77
2023/11/15 02:37:58;;;;;;;2.20;0.30;;;;;;;9.87;100.00;98525.84;5044422;28;20017;-78
2023/11/15 02:40:23;;;;;;;4.03;0.60;;;;;;;9.81;100.00;98525.88;5045561;28;20025;-78
2023/11/15 02:42:48;;;;;;;1.27;0.40;;;;;;;9.74;100.00;98516.91;5044510;28;20028;-77
2023/11/15 02:45:14;;;;;;;2.47;0.45;;;;;;;9.75;100.00;98510.47;5043973;28;20056;-78
2023/11/15 02:47:39;;;;;;;4.10;0.60;;;;;;;9.84;100.00;98541.66;5043756;28;20100;-77
2023/11/15 02:50:06;;;;;;;2.60;0.40;;;;;;;9.82;100.00;98533.78;5043362;28;20256;-78
2023/11/15 02:52:32;;;;;;;3.58;0.77;;;;;;;9.75;100.00;98538.31;5038061;28;20148;-78
2023/11/15 02:54:58;;;;;;;2.88;0.70;;;;;;;9.66;100.00;98524.16;5027062;28;20348;-78
2023/11/15 02:57:23;;;;;;;10.57;0.65;;;;;;;9.64;100.00;98515.44;5044306;28;20025;-77
2023/11/15 02:59:49;;;;;;;3.08;0.63;;;;;;;9.78;100.00;98543.31;5044595;28;20033;-78
2023/11/15 03:02:14;;;;;;;3.53;0.82;;;;;;;9.78;100.00;98545.19;5043785;28;20045;-78
2023/11/15 03:04:39;;;;;;;3.65;0.60;;;;;;;9.84;100.00;98549.75;5042864;28;20322;-78
2023/11/15 03:07:05;;;;;;;5.53;0.60;;;;;;;9.77;100.00;98565.97;5043898;28;20032;-78
2023/11/15 03:09:31;;;;;;;4.95;1.00;;;;;;;9.69;100.00;98563.44;5025681;28;20025;-78
2023/11/15 03:11:56;;;;;;;5.05;0.68;;;;;;;9.66;100.00;98564.66;5026221;28;20036;-78
2023/11/15 03:14:22;;;;;;;2.75;0.50;;;;;;;9.56;100.00;98560.69;5042435;28;20029;-78
2023/11/15 03:16:47;;;;;;;5.30;0.95;;;;;;;9.52;100.00;98562.16;5031487;28;20021;-78
2023/11/15 03:19:13;;;;;;;3.40;0.43;;;;;;;9.54;100.00;98577.13;5043541;28;20029;-78
2023/11/15 03:21:38;;;;;;;4.28;1.02;;;;;;;9.58;100.00;98570.25;5043582;28;20092;-78
2023/11/15 03:24:04;;;;;;;6.15;0.93;;;;;;;9.57;100.00;98576.72;5042639;28;20036;-78
2023/11/15 03:26:29;;;;;;;2.50;0.50;;;;;;;9.48;100.00;98561.72;5037541;28;20021;-77
2023/11/15 03:28:55;;;;;;;3.88;0.60;;;;;;;9.57;100.00;98563.22;5031910;28;20041;-78
2023/11/15 03:31:20;;;;;;;2.42;0.70;;;;;;;9.59;100.00;98576.53;5023743;28;20022;-77
2023/11/15 03:33:50;;;;;;;5.13;0.70;;;;;;;9.61;100.00;98586.06;5023736;28;20022;-77
2023/11/15 03:36:16;;;;;;;5.20;0.90;;;;;;;9.52;100.00;98564.84;5023770;28;20290;-78
2023/11/15 03:38:41;;;;;;;5.65;0.95;;;;;;;9.58;100.00;98585.63;5041456;28;20041;-78
2023/11/15 03:41:06;;;;;;;3.22;0.50;;;;;;;9.48;100.00;98568.97;5043269;28;20028;-77
2023/11/15 03:43:32;;;;;;;3.58;0.98;;;;;;;9.60;100.00;98581.69;5025693;28;20025;-78
2023/11/15 03:45:58;;;;;;;2.47;0.70;;;;;;;9.64;100.00;98606.44;5025719;28;20083;-77
2023/11/15 03:48:24;;;;;;;5.95;0.70;;;;;;;9.72;100.00;98602.72;5025507;28;20033;-78
2023/11/15 03:50:49;;;;;;;2.80;0.60;;;;;;;9.58;100.00;98589.16;5042541;28;21316;-78
2023/11/15 03:53:16;;;;;;;1.85;0.38;;;;;;;9.75;100.00;98592.34;5042813;28;20048;-78
2023/11/15 03:55:41;;;;;;;8.20;0.85;;;;;;;9.74;100.00;98598.78;5036051;28;20249;-77
2023/11/15 03:58:07;;;;;;;7.28;0.77;;;;;;;9.75;100.00;98594.22;5042983;28;20025;-77
2023/11/15 04:00:32;;;;;;;4.40;0.63;;;;;;;9.74;100.00;98600.66;5043177;28;20025;-78
2023/11/15 04:02:57;;;;;;;8.13;0.82;;;;;;;9.71;100.00;98585.69;5042780;28;20326;-78
2023/11/15 04:05:22;;;;;;;6.93;0.70;;;;;;;9.79;100.00;98608.97;5042833;28;20052;-78
2023/11/15 04:07:48;;;;;;;2.83;0.70;;;;;;;9.83;100.00;98619.19;5042793;28;20032;-77
2023/11/15 04:10:13;;;;;;;2.10;0.63;;;;;;;9.72;100.00;98608.97;5031504;28;20048;-78
2023/11/15 04:12:39;;;;;;;1.75;0.60;;;;;;;9.76;100.00;98617.50;5023282;28;21782;-77
2023/11/15 04:15:05;;;;;;;3.15;0.50;;;;;;;9.74;100.00;98625.78;5026443;28;20029;-80
2023/11/15 04:17:30;;;;;;;3.92;0.57;;;;;;;9.78;100.00;98624.38;5041999;28;20037;-79
2023/11/15 04:19:55;;;;;;;1.88;0.57;;;;;;;9.69;100.00;98630.16;5035205;28;20319;-76
2023/11/15 04:22:21;;;;;;;9.43;0.68;;;;;;;9.59;100.00;98647.56;5042766;28;20310;-75
2023/11/15 04:24:46;;;;;;;4.72;0.90;;;;;;;9.43;100.00;98642.47;5033847;28;20017;-76
2023/11/15 04:27:12;;;;;;;5.60;0.80;;;;;;;9.48;100.00;98660.78;5023388;28;20045;-76
2023/11/15 04:29:39;;;;;;;5.25;0.45;;;;;;;9.43;100.00;98648.75;5032067;28;20025;-76
2023/11/15 04:32:06;;;;;;;2.60;0.73;;;;;;;9.49;100.00;98670.59;5042994;28;20071;-77
2023/11/15 04:34:31;;;;;;;1.80;0.50;;;;;;;9.56;100.00;98679.53;5024196;28;20041;-77
2023/11/15 04:37:17;;;;;;;3.58;0.80;;;;;;;9.57;100.00;98673.13;5049264;28;20041;-81
2023/11/15 04:39:43;;;;;;;4.05;1.20;;;;;;;9.65;100.00;98686.44;5031306;28;20016;-79
2023/11/15 04:42:10;;;;;;;3.63;0.82;;;;;;;9.62;100.00;98667.94;5014294;28;20033;-77
2023/11/15 04:44:36;;;;;;;7.70;1.00;;;;;;;9.66;100.00;98669.19;5028439;28;20100;-80
2023/11/15 04:47:01;;;;;;;2.83;0.70;;;;;;;9.59;100.00;98673.75;5038388;28;20029;-80
2023/11/15 04:49:26;;;;;;;6.00;0.93;;;;;;;9.57;100.00;98687.44;5027633;28;20030;-79
2023/11/15 04:51:52;;;;;;;4.28;0.73;;;;;;;9.40;100.00;98675.28;5024968;28;20025;-78
2023/11/15 04:54:17;;;;;;;4.90;0.63;;;;;;;9.38;100.00;98696.28;5026731;28;20021;-76
2023/11/15 04:56:42;;;;;;;3.78;0.70;;;;;;;9.26;100.00;98689.75;5042914;28;20265;-77
2023/11/15 04:59:07;;;;;;;8.00;0.77;;;;;;;9.22;100.00;98705.50;5044139;28;20088;-78
2023/11/15 05:01:34;;;;;;;4.30;1.05;;;;;;;9.20;100.00;98703.00;5031422;28;20029;-79
2023/11/15 05:04:09;;;;;;;5.07;0.80;;;;;;;9.37;100.00;98729.69;5034041;28;20032;-79
2023/11/15 05:06:59;;;;;;;2.55;0.60;;;;;;;9.43;100.00;98727.06;5047377;28;20053;-80
2023/11/15 05:09:27;;;;;;;6.05;0.60;;;;;;;9.30;100.00;98677.50;5037600;28;20030;-79
2023/11/15 05:11:54;;;;;;;4.75;0.60;;;;;;;9.56;100.00;98717.34;5031926;28;20025;-80
2023/11/15 05:14:21;;;;;;;2.90;0.88;;;;;;;9.48;100.00;98694.03;5036443;28;20041;-79
2023/11/15 05:16:47;;;;;;;4.13;0.68;;;;;;;9.60;100.00;98714.06;5031890;28;20342;-75
2023/11/15 05:19:12;;;;;;;4.65;1.13;;;;;;;9.49;100.00;98687.63;5046507;28;20028;-79
2023/11/15 05:21:37;;;;;;;6.55;0.85;;;;;;;9.61;100.00;98704.91;5030782;28;20033;-78
2023/11/15 05:24:09;;;;;;;9.77;0.90;;;;;;;9.59;100.00;98711.56;5029411;28;20056;-79
2023/11/15 05:26:34;;;;;;;4.97;1.00;;;;;;;9.50;100.00;98708.19;5047937;28;20318;-73
2023/11/15 05:28:59;;;;;;;3.53;0.68;;;;;;;9.50;100.00;98710.88;5056267;28;20020;-77
2023/11/15 05:31:25;;;;;;;1.88;0.68;;;;;;;9.53;100.00;98718.56;5038080;28;20022;-77
2023/11/15 05:33:50;;;;;;;5.65;0.90;;;;;;;9.61;100.00;98729.22;5032679;28;20052;-78
2023/11/15 05:36:23;;;;;;;4.70;0.47;;;;;;;9.55;100.00;98726.50;5049998;28;20017;-79
2023/11/15 05:38:49;;;;;;;8.30;0.98;;;;;;;9.48;100.00;98714.81;5040086;28;20109;-77
2023/11/15 05:41:14;;;;;;;5.30;0.93;;;;;;;9.48;100.00;98731.84;5032793;28;20092;-79
2023/11/15 05:43:41;;;;;;;3.28;0.50;;;;;;;9.37;100.00;98719.72;5033338;28;20029;-79
2023/11/15 05:46:06;;;;;;;2.47;1.00;;;;;;;9.45;100.00;98748.44;5034318;28;20092;-79
2023/11/15 05:48:33;;;;;;;3.10;0.55;;;;;;;9.23;100.00;98739.56;5030145;28;20029;-79
2023/11/15 05:50:58;;;;;;;2.00;0.40;;;;;;;9.29;100.00;98760.38;5029156;28;20320;-78
2023/11/15 05:53:24;;;;;;;4.80;0.70;;;;;;;9.26;100.00;98763.47;5047985;28;20028;-78
2023/11/15 05:55:49;;;;;;;2.47;0.60;;;;;;;9.26;100.00;98758.06;5046867;28;20021;-78
2023/11/15 05:58:14;;;;;;;3.90;0.80;;;;;;;9.36;100.00;98774.78;5032966;28;20041;-81
2023/11/15 06:00:39;;;;;;;6.93;0.85;;;;;;;9.13;100.00;98737.22;5038085;28;20096;-78
2023/11/15 06:03:06;;;;;;;8.50;0.90;;;;;;;9.39;100.00;98771.66;5037976;28;20032;-77
2023/11/15 06:05:31;;;;;;;1.70;0.60;;;;;;;9.37;100.00;98772.91;5032030;28;20021;-77
2023/11/15 06:07:56;;;;;;;2.13;0.70;;;;;;;9.34;100.00;98759.78;5027645;28;20032;-75
2023/11/15 06:10:22;;;;;;;5.57;1.05;;;;;;;9.23;100.00;98744.97;5032571;28;20048;-77
2023/11/15 06:12:47;;;;;;;7.95;1.02;;;;;;;9.39;100.00;98768.97;5044925;28;20071;-77
2023/11/15 06:15:12;;;;;;;7.90;1.17;;;;;;;9.30;100.00;98767.47;5030205;28;20017;-78
2023/11/15 06:17:41;;;;;;;5.40;0.68;;;;;;;9.40;100.00;98788.69;5045666;28;20021;-78
2023/11/15 06:20:09;;;;;;;2.55;0.65;;;;;;;9.32;100.00;98780.75;5030556;28;20029;-77
2023/11/15 06:22:35;;;;;;;7.15;1.25;;;;;;;9.35;100.00;98783.91;5029253;28;20033;-78
2023/11/15 06:25:00;;;;;;;7.20;0.88;;;;;;;9.24;100.00;98784.41;5043007;28;20057;-77
2023/11/15 06:27:26;;;;;;;5.95;1.00;;;;;;;9.14;100.00;98765.03;5026824;28;20044;-77
2023/11/15 06:29:51;;;;;;;5.03;1.20;;;;;;;8.97;100.00;98746.41;5050265;28;20052;-74
2023/11/15 06:32:17;;;;;;;8.10;0.82;;;;;;;9.14;100.00;98767.72;5044980;28;20048;-77
2023/11/15 06:34:45;;;;;;;5.57;0.80;;;;;;;9.24;100.00;98779.03;5027687;28;20067;-76
2023/11/15 06:37:12;;;;;;;3.63;0.73;;;;;;;9.27;100.00;98789.44;5043833;28;20325;-76
2023/11/15 06:39:40;;;;;;;2.95;0.68;;;;;;;9.25;100.00;98782.56;5043146;28;20326;-79
2023/11/15 06:42:14;;;;;;;5.15;0.95;;;;;;;9.09;100.00;98757.53;5033276;28;20032;-80
2023/11/15 06:45:06;;;;;;;5.65;1.05;;;;;;;9.21;100.00;98812.63;5031110;28;20013;-77
2023/11/15 06:47:32;;;;;;;8.07;0.80;;;;;;;8.94;100.00;98773.78;5029323;28;20337;-79
2023/11/15 06:49:58;;;;;;;9.30;0.82;;;;;;;9.03;100.00;98817.66;5030893;28;20204;-76
2023/11/15 06:52:25;;;;;;;4.75;1.15;;;;;;;9.07;100.00;98831.63;5038141;28;20068;-74
2023/11/15 06:54:52;;;;;;;6.30;0.90;;;;;;;8.89;100.00;98811.31;5024605;28;20063;-74
2023/11/15 06:57:19;;;;;;;5.25;0.82;;;;;;;9.06;100.00;98838.03;5029486;28;20024;-74
2023/11/15 06:59:44;;;;;;;5.57;0.82;;;;;;;9.01;100.00;98838.59;5056204;28;20021;-74
2023/11/15 07:02:11;;;;;;;4.88;1.00;;;;;;;8.97;100.00;98831.94;5055620;28;20044;-73
2023/11/15 07:05:18;;;;;;;7.53;1.13;;;;;;;9.14;100.00;98851.41;5041499;28;20022;-79
2023/11/15 07:07:43;;;;;;;4.85;0.80;;;;;;;9.19;100.00;98867.84;5055658;28;20033;-76
2023/11/15 07:10:09;;;;;;;3.15;0.65;;;;;;;9.21;100.00;98873.91;5054427;22;20084;-51
2023/11/15 07:12:38;;;;;;;4.28;0.82;;;;;;;9.22;100.00;98883.66;5039358;28;20455;-51
2023/11/15 07:15:04;;;;;;;2.65;0.90;;;;;;;9.27;100.00;98893.88;5032544;28;20037;-51
2023/11/15 07:17:31;;;;;;;9.07;0.85;;;;;;;9.26;100.00;98895.75;5014247;28;20032;-51
2023/11/15 07:19:57;;;;;;;8.38;1.23;;;;;;;9.36;100.00;98887.34;5047628;28;20079;-51
2023/11/15 07:22:22;;;;;;;8.05;1.30;;;;;;;9.48;100.00;98893.88;5031982;28;20037;-51
2023/11/15 07:24:48;;;;;;;5.00;0.80;;;;;;;9.53;100.00;98894.13;5017472;28;20026;-51
2023/11/15 07:27:13;;;;;;;6.85;1.00;;;;;;;9.56;100.00;98885.66;5021508;28;20025;-51
2023/11/15 07:29:39;;;;;;;7.88;0.98;;;;;;;9.64;100.00;98895.47;5019798;28;20117;-51
2023/11/15 07:32:07;;;;;;;6.90;1.00;;;;;;;9.72;100.00;98894.50;5020464;28;20061;-51
2023/11/15 07:34:34;;;;;;;5.78;1.23;;;;;;;9.64;100.00;98893.63;5027193;28;20053;-51
2023/11/15 07:36:59;;;;;;;5.28;1.30;;;;;;;9.68;100.00;98898.63;5023880;28;20440;-52
2023/11/15 07:39:25;;;;;;;4.18;0.75;;;;;;;9.71;100.00;98899.06;5024747;28;20030;-51
2023/11/15 07:41:52;;;;;;;6.40;0.90;;;;;;;9.58;100.00;98893.56;5023989;28;20029;-52
2023/11/15 07:44:18;;;;;;;10.27;1.30;;;;;;;9.58;100.00;98898.94;5024671;28;20025;-51
2023/11/15 07:46:49;;;;;;;8.63;1.25;;;;;;;9.60;100.00;98891.50;5020730;28;20021;-51
2023/11/15 07:49:18;;;;;;;7.85;1.00;;;;;;;9.70;100.00;98900.09;5018419;28;20397;-51
2023/11/15 07:51:47;;;;;;;9.23;0.90;;;;;;;9.83;100.00;98886.69;5025307;28;20465;-51
2023/11/15 07:54:13;;;;;;;3.10;0.93;;;;;;;9.80;100.00;98892.50;5020896;28;20033;-51
2023/11/15 07:56:39;;;;;;;9.60;1.10;;;;;;;9.82;100.00;98898.56;5026869;28;20038;-51
2023/11/15 07:59:05;;;;;;;11.80;1.40;;;;;;;10.02;100.00;98906.78;5013620;28;20041;-51
2023/11/15 08:01:30;;;;;;;7.10;1.40;;;;;;;9.95;100.00;98894.25;5018419;28;20030;-51
2023/11/15 08:03:56;;;;;;;6.55;1.23;;;;;;;9.79;100.00;98908.88;5024304;28;20362;-51
2023/11/15 08:06:21;;;;;;;11.57;1.23;;;;;;;9.59;100.00;98911.44;5020637;28;20033;-58
2023/11/15 08:08:47;;;;;;;5.43;1.10;;;;;;;9.60;100.00;98907.69;5024740;28;20445;-58
2023/11/15 08:11:13;;;;;;;10.38;1.30;;;;;;;9.69;100.00;98905.69;5021830;28;20418;-59
2023/11/15 08:13:39;;;;;;;6.65;1.23;;;;;;;9.95;100.00;98921.28;5025213;28;20021;-62
2023/11/15 08:16:09;;;;;;;9.07;1.42;;;;;;;9.90;100.00;98912.91;5024147;28;20075;-62
2023/11/15 08:18:34;;;;;;;5.15;1.05;;;;;;;9.98;100.00;98912.78;5022658;28;20026;-62
2023/11/15 08:21:01;;;;;;;6.07;1.35;;;;;;;10.28;100.00;98916.97;5018243;28;20030;-58
2023/11/15 08:23:28;;;;;;;9.05;1.52;;;;;;;10.41;100.00;98899.16;5020860;28;20032;-58
2023/11/15 08:25:53;;;;;;;6.57;1.25;;;;;;;10.01;100.00;98917.81;5021465;28;20029;-58
2023/11/15 08:28:20;;;;;;;6.78;1.20;;;;;;;10.07;100.00;98919.72;5017374;28;20022;-58
2023/11/15 08:30:46;;;;;;;8.10;1.00;;;;;;;10.22;100.00;98928.56;5017110;28;20424;-51
2023/11/15 08:33:16;;;;;;;6.15;0.80;;;;;;;10.19;100.00;98938.91;5026208;28;20017;-51
2023/11/15 08:35:43;;;;;;;8.68;1.23;;;;;;;10.26;100.00;98951.44;5025936;28;20403;-52
2023/11/15 08:38:09;;;;;;;3.20;0.90;;;;;;;9.82;100.00;98936.38;5025128;28;20014;-52
2023/11/15 08:40:36;;;;;;;8.45;1.20;;;;;;;9.77;100.00;98957.75;5027072;28;20124;-52
2023/11/15 08:43:02;;;;;;;6.07;1.02;;;;;;;9.76;100.00;98955.22;5025733;28;20045;-52
2023/11/15 08:45:28;;;;;;;7.40;1.10;;;;;;;9.98;100.00;98953.31;5028289;28;20057;-51
2023/11/15 08:47:57;;;;;;;11.43;1.50;;;;;;;10.14;100.00;98961.16;5032117;28;20025;-52
2023/11/15 08:50:24;;;;;;;4.93;1.17;;;;;;;10.21;100.00;98959.31;5029724;28;20384;-52
2023/11/15 08:52:49;;;;;;;5.07;2.13;;;;;;;10.26;100.00;98962.25;5030637;28;20036;-52
2023/11/15 08:55:15;;;;;;;5.93;1.13;;;;;;;10.37;100.00;98968.19;5032025;28;20029;-52
2023/11/15 08:57:42;;;;;;;6.93;1.17;;;;;;;10.50;100.00;98961.00;5027914;28;20022;-52
2023/11/15 09:00:12;;;;;;;5.90;1.48;;;;;;;10.50;100.00;98973.69;5027620;28;20412;-52
2023/11/15 09:02:42;;;;;;;5.70;1.08;;;;;;;10.41;100.00;98972.19;5030634;28;20095;-52
2023/11/15 09:05:08;;;;;;;9.60;1.20;;;;;;;10.47;100.00;98974.91;5030160;28;20084;-63
2023/11/15 09:07:33;;;;;;;11.93;1.67;;;;;;;10.39;100.00;98975.06;5029690;28;20026;-59
2023/11/15 09:09:59;;;;;;;2.40;0.80;;;;;;;10.32;100.00;98974.19;5025245;28;20113;-58
2023/11/15 09:12:30;;;;;;;9.68;1.58;;;;;;;10.36;100.00;98967.38;5021364;28;20037;-59
2023/11/15 09:14:58;;;;;;;7.93;1.23;;;;;;;10.51;100.00;98970.78;5017536;28;20022;-59
2023/11/15 09:17:26;;;;;;;8.55;1.17;;;;;;;10.48;100.00;98982.00;5015266;28;20034;-64
2023/11/15 09:19:56;;;;;;;7.75;1.25;;;;;;;10.48;100.00;98976.59;5023147;28;20139;-58
2023/11/15 09:22:22;;;;;;;4.63;1.00;;;;;;;10.51;100.00;98967.25;5030447;28;20041;-58
2023/11/15 09:24:51;;;;;;;4.35;1.00;;;;;;;10.71;100.00;98981.72;5028032;28;20017;-58
2023/11/15 09:27:17;;;;;;;;;;;;;;;10.84;100.00;98974.72;5018750;28;20021;-58
2023/11/15 09:29:42;;;;;;;5.13;1.02;;;;;;;10.56;100.00;98969.34;5024256;28;19913;-51
2023/11/15 09:32:10;;;;;;;5.18;1.13;;;;;;;10.70;100.00;98965.69;5017563;28;20046;-51
2023/11/15 09:34:38;;;;;;;7.43;1.20;;;;;;;10.81;100.00;98969.69;5023884;28;20053;-51
2023/11/15 09:37:04;;;;;;;5.27;0.70;;;;;;;10.88;100.00;98976.81;5031111;28;20029;-51
2023/11/15 09:39:29;;;;;;;3.88;0.50;;;;;;;10.75;100.00;98982.16;5014280;28;20272;-51
2023/11/15 09:41:55;;;;;;;4.20;0.73;;;;;;;10.76;100.00;98975.72;5026109;28;20036;-51
2023/11/15 09:44:23;;;;;;;7.40;1.20;;;;;;;10.78;100.00;98980.94;5023569;28;20037;-51
2023/11/15 09:46:53;;;;;;;4.45;0.95;;;;;;;10.90;100.00;98976.63;5027236;28;20025;-51
2023/11/15 09:49:19;;;;;;;4.22;1.00;;;;;;;10.82;100.00;98998.41;5021686;28;20461;-51
2023/11/15 09:51:45;;;;;;;3.78;0.98;;;;;;;10.78;100.00;98994.47;5034143;28;20444;-51
2023/11/15 09:54:12;;;;;;;6.05;1.30;;;;;;;11.55;100.00;98990.56;5021179;28;20033;-51
2023/11/15 09:56:39;;;;;;;4.45;0.60;;;;;;;12.46;100.00;98969.16;5027769;28;20052;-55
2023/11/15 09:59:05;;;;;;;6.63;0.88;;;;;;;11.98;100.00;98961.28;5030106;28;20036;-52
2023/11/15 10:01:30;;;;;;;4.70;0.70;;;;;;;11.52;100.00;98972.84;5023918;28;20096;-52
2023/11/15 10:03:58;;;;;;;3.50;0.73;;;;;;;11.32;100.00;98982.84;5026143;28;20116;-52
2023/11/15 10:06:24;;;;;;;7.60;1.10;;;;;;;11.37;100.00;98993.84;5030763;28;20351;-52
2023/11/15 10:08:53;;;;;;;3.25;0.80;;;;;;;11.28;100.00;98997.81;5025243;28;20366;-52
2023/11/15 10:11:24;;;;;;;5.38;1.08;;;;;;;11.70;100.00;98983.09;5031454;28;20047;-51
2023/11/15 10:14:06;;;;;;;2.03;0.85;;;;;;;11.49;100.00;98989.53;5033462;28;20455;-52
2023/11/15 10:16:34;;;;;;;6.18;0.80;;;;;;;11.49;100.00;98983.28;5012812;28;20044;-51
2023/11/15 10:19:00;;;;;;;3.63;0.70;;;;;;;11.24;100.00;99002.81;5024546;28;20048;-51
2023/11/15 10:21:26;;;;;;;7.10;1.60;;;;;;;11.55;100.00;99010.41;5017737;28;20418;-52
2023/11/15 10:24:10;;;;;;;5.20;1.17;;;;;;;11.30;100.00;99007.41;5021235;28;20030;-52
2023/11/15 10:26:39;;;;;;;2.90;1.05;;;;;;;11.48;100.00;99017.66;5013617;28;20091;-52
2023/11/15 10:29:12;;;;;;;4.60;1.00;;;;;;;11.46;100.00;99014.31;5022073;28;20022;-52
2023/11/15 10:31:51;;;;;;;5.68;0.82;;;;;;;11.05;100.00;99009.78;5020562;28;20088;-52
2023/11/15 10:34:17;;;;;;;4.47;0.98;;;;;;;11.04;100.00;99008.13;5026366;28;20033;-52
2023/11/15 10:36:42;;;;;;;6.07;1.08;;;;;;;10.83;100.00;99019.06;5021726;28;20034;-52
2023/11/15 10:39:11;;;;;;;4.07;0.70;;;;;;;10.85;100.00;99019.69;5025681;28;20033;-52
2023/11/15 10:41:38;;;;;;;5.00;0.80;;;;;;;10.82;100.00;99011.94;5023517;28;20036;-52
2023/11/15 10:44:07;;;;;;;3.97;1.15;;;;;;;10.86;100.00;99010.53;5014596;28;20050;-52
2023/11/15 10:46:39;;;;;;;3.88;1.08;;;;;;;10.77;100.00;99007.16;5023071;28;20456;-52
2023/11/15 10:49:06;;;;;;;7.18;1.25;;;;;;;11.01;100.00;99015.81;5017488;28;20034;-52
2023/11/15 10:51:47;;;;;;;7.43;2.25;;;;;;;11.22;100.00;98998.63;5019928;28;20056;-52
2023/11/15 10:54:14;;;;;;;4.15;1.10;;;;;;;11.02;100.00;98998.53;5028653;28;20025;-51
2023/11/15 10:56:41;;;;;;;2.08;0.70;;;;;;;11.56;100.00;98990.38;5027924;28;20473;-52
2023/11/15 10:59:10;;;;;;;9.25;1.38;;;;;;;11.61;100.00;99001.44;5024670;28;20032;-51
2023/11/15 11:01:36;;;;;;;5.25;0.80;;;;;;;11.40;100.00;99001.59;5029720;28;20037;-51
2023/11/15 11:04:10;;;;;;;6.07;1.25;;;;;;;11.57;100.00;99002.06;5023335;28;20029;-51
2023/11/15 11:06:58;;;;;;;7.50;1.60;;;;;;;12.16;100.00;98984.22;5019694;28;20018;-58
2023/11/15 11:09:52;;;;;;;8.75;1.67;;;;;;;13.47;100.00;98975.09;5028291;28;20104;-58
2023/11/15 11:12:22;;;;;;;8.57;1.10;;;;;;;15.44;100.00;98958.94;5016860;28;20040;-51
2023/11/15 11:15:12;;;;;;;;;;;;;;;15.11;100.00;98948.47;5033235;28;20044;-52
2023/11/15 11:17:42;;;;;;;6.70;0.80;;;;;;;13.87;100.00;98966.66;5030940;28;19912;-51
2023/11/15 11:20:24;;;;;;;5.15;0.73;;;;;;;12.98;100.00;98960.25;5030011;28;20491;-52
2023/11/15 11:23:21;;;;;;;7.53;1.00;;;;;;;12.89;100.00;98963.22;5027795;28;20107;-60
2023/11/15 11:25:48;;;;;;;2.30;0.70;;;;;;;13.52;100.00;98948.09;5020859;28;20160;-59
2023/11/15 11:28:15;;;;;;;2.42;0.60;;;;;;;15.10;100.00;98949.53;5026932;28;20018;-63
2023/11/15 11:30:41;;;;;;;3.03;1.02;;;;;;;15.10;100.00;98936.75;5026229;28;20148;-61
2023/11/15 11:33:19;;;;;;;5.97;0.90;;;;;;;14.64;100.00;98953.63;5025427;28;20105;-59